createdAt,value
2018-03-18T00:02:52.710Z,44.22
2018-03-18T00:07:54.099Z,44.39
2018-03-18T00:12:55.584Z,44.61
2018-03-18T00:17:56.997Z,44.69
2018-03-18T00:22:58.383Z,44.16
2018-03-18T00:27:59.892Z,44.73
2018-03-18T00:33:01.301Z,45.07
2018-03-18T00:38:02.662Z,44.70
2018-03-18T00:43:04.982Z,44.99
2018-03-18T00:48:06.371Z,44.72
2018-03-18T00:53:07.808Z,45.16
2018-03-18T00:58:09.253Z,44.41
2018-03-18T01:03:10.724Z,44.92
2018-03-18T01:08:12.164Z,44.27
2018-03-18T01:13:14.508Z,44.36
2018-03-18T01:18:16.675Z,45.37
2018-03-18T01:23:18.633Z,44.57
2018-03-18T01:28:20.374Z,44.91
2018-03-18T01:33:22.073Z,45.79
2018-03-18T01:38:24.020Z,45.69
2018-03-18T01:43:25.471Z,45.14
2018-03-18T01:48:27.300Z,45.04
2018-03-18T01:53:28.912Z,44.89
2018-03-18T01:58:31.069Z,44.42
2018-03-18T02:03:32.453Z,44.69
2018-03-18T02:08:33.871Z,45.13
2018-03-18T02:13:35.670Z,44.21
2018-03-18T02:23:45.747Z,44.70
2018-03-18T02:28:47.984Z,44.89
2018-03-18T02:33:49.364Z,44.82
2018-03-18T02:38:51.200Z,45.02
2018-03-18T02:43:52.663Z,45.09
2018-03-18T02:48:54.824Z,45.21
2018-03-18T02:53:56.488Z,45.42
2018-03-18T02:58:58.047Z,45.45
2018-03-18T03:04:00.744Z,45.74
2018-03-18T03:09:02.994Z,46.14
2018-03-18T03:14:04.369Z,45.76
2018-03-18T03:19:06.678Z,45.86
2018-03-18T03:24:08.071Z,46.12
2018-03-18T03:29:09.755Z,46.10
2018-03-18T03:34:11.319Z,46.03
2018-03-18T03:39:13.254Z,45.96
2018-03-18T03:44:14.980Z,46.18
2018-03-18T03:49:17.371Z,46.09
2018-03-18T03:54:19.059Z,45.91
2018-03-18T03:59:21.563Z,46.24
2018-03-18T04:04:22.960Z,45.69
2018-03-18T04:09:24.737Z,45.76
2018-03-18T04:14:26.071Z,46.52
2018-03-18T04:19:27.486Z,46.26
2018-03-18T04:24:29.389Z,46.64
2018-03-18T04:29:31.088Z,46.51
2018-03-18T04:34:32.461Z,46.43
2018-03-18T04:39:34.695Z,46.19
2018-03-18T04:44:36.065Z,46.86
2018-03-18T04:49:38.299Z,46.26
2018-03-18T04:54:40.385Z,47.08
2018-03-18T04:59:41.759Z,46.65
2018-03-18T05:04:43.121Z,46.81
2018-03-18T05:09:44.491Z,46.99
2018-03-18T05:14:45.870Z,46.76
2018-03-18T05:19:47.699Z,47.19
2018-03-18T05:24:49.140Z,46.83
2018-03-18T05:29:51.410Z,47.17
2018-03-18T05:34:52.829Z,46.83
2018-03-18T05:39:54.232Z,47.65
2018-03-18T05:44:56.341Z,46.76
2018-03-18T05:49:58.791Z,46.98
2018-03-18T05:55:00.600Z,47.23
2018-03-18T06:00:02.120Z,46.81
2018-03-18T06:05:03.854Z,46.62
2018-03-18T06:10:05.802Z,46.42
2018-03-18T06:15:07.176Z,46.28
2018-03-18T06:20:09.527Z,46.21
2018-03-18T06:25:10.951Z,46.46
2018-03-18T06:30:13.188Z,45.71
2018-03-18T06:35:14.549Z,46.06
2018-03-18T06:40:16.661Z,46.15
2018-03-18T06:45:18.767Z,45.81
2018-03-18T06:50:20.106Z,45.20
2018-03-18T06:55:23.634Z,45.20
2018-03-18T07:00:25.008Z,44.66
2018-03-18T07:05:26.389Z,44.42
2018-03-18T07:10:27.783Z,44.74
2018-03-18T07:15:29.172Z,44.34
2018-03-18T07:20:30.937Z,43.75
2018-03-18T07:25:32.298Z,44.07
2018-03-18T07:30:33.639Z,44.12
2018-03-18T07:35:36.680Z,44.31
2018-03-18T07:40:38.035Z,42.94
2018-03-18T07:45:39.438Z,43.58
2018-03-18T07:50:40.761Z,42.90
2018-03-18T07:55:42.107Z,43.24
2018-03-18T08:00:43.722Z,42.95
2018-03-18T08:05:45.115Z,42.54
2018-03-18T08:10:46.449Z,42.28
2018-03-18T08:15:47.848Z,41.81
2018-03-18T08:20:49.256Z,41.93
2018-03-18T08:25:50.637Z,41.16
2018-03-18T08:30:52.012Z,41.62
2018-03-18T08:35:53.429Z,40.79
2018-03-18T08:40:54.744Z,40.91
2018-03-18T08:45:56.539Z,40.68
2018-03-18T08:50:57.920Z,40.78
2018-03-18T08:55:59.257Z,40.70
2018-03-18T09:01:00.576Z,40.31
2018-03-18T09:06:01.973Z,40.08
2018-03-18T09:11:03.363Z,39.76
2018-03-18T09:16:04.724Z,39.25
2018-03-18T09:21:06.087Z,39.88
2018-03-18T09:26:07.434Z,38.67
2018-03-18T09:31:08.808Z,38.99
2018-03-18T09:36:10.170Z,39.46
2018-03-18T09:41:11.530Z,37.15
2018-03-18T09:46:13.037Z,37.54
2018-03-18T09:51:14.435Z,38.32
2018-03-18T09:56:15.935Z,38.45
2018-03-18T10:01:17.453Z,38.12
2018-03-18T10:06:18.892Z,37.60
2018-03-18T10:11:20.297Z,37.01
2018-03-18T10:16:22.355Z,37.96
2018-03-18T10:21:24.297Z,37.13
2018-03-18T10:26:25.860Z,38.86
2018-03-18T10:31:27.293Z,37.22
2018-03-18T10:36:29.347Z,36.82
2018-03-18T10:41:30.663Z,37.61
2018-03-18T10:46:32.160Z,35.96
2018-03-18T10:51:34.387Z,36.68
2018-03-18T10:56:36.347Z,36.37
2018-03-18T11:01:44.313Z,36.20
2018-03-18T11:06:45.701Z,34.87
2018-03-18T11:11:47.062Z,36.35
2018-03-18T11:16:49.001Z,36.05
2018-03-18T11:21:50.586Z,35.43
2018-03-18T11:26:51.968Z,35.36
2018-03-18T11:31:54.257Z,34.86
2018-03-18T11:36:55.676Z,36.35
2018-03-18T11:41:57.039Z,33.93
2018-03-18T11:46:58.457Z,34.10
2018-03-18T11:51:59.840Z,34.38
2018-03-18T11:57:01.500Z,34.39
2018-03-18T12:02:02.984Z,33.64
2018-03-18T12:07:05.074Z,34.02
2018-03-18T12:12:06.430Z,35.18
2018-03-18T12:17:07.783Z,33.34
2018-03-18T12:22:09.156Z,33.75
2018-03-18T12:27:10.479Z,33.50
2018-03-18T12:32:11.848Z,33.86
2018-03-18T12:37:14.087Z,33.84
2018-03-18T12:47:58.845Z,34.05
2018-03-18T12:53:00.314Z,33.15
2018-03-18T12:58:02.092Z,33.41
2018-03-18T13:03:03.532Z,33.14
2018-03-18T13:08:11.770Z,33.22
2018-03-18T13:13:13.455Z,33.65
2018-03-18T13:18:15.548Z,32.44
2018-03-18T13:23:16.908Z,32.97
2018-03-18T13:28:18.292Z,32.75
2018-03-18T13:33:19.638Z,33.66
2018-03-18T13:38:21.001Z,31.44
2018-03-18T13:43:22.394Z,31.94
2018-03-18T13:48:23.752Z,31.29
2018-03-18T13:53:25.118Z,31.20
2018-03-18T13:58:26.563Z,32.46
2018-03-18T14:03:27.962Z,33.08
2018-03-18T14:08:29.350Z,33.03
2018-03-18T14:13:30.693Z,32.56
2018-03-18T14:18:32.179Z,31.71
2018-03-18T14:23:33.536Z,32.12
2018-03-18T14:28:34.974Z,32.49
2018-03-18T14:33:36.363Z,32.49
2018-03-18T14:38:37.728Z,32.24
2018-03-18T14:43:39.102Z,31.75
2018-03-18T14:48:41.241Z,32.20
2018-03-18T14:53:42.614Z,31.20
2018-03-18T14:58:43.953Z,30.63
2018-03-18T15:03:45.325Z,31.42
2018-03-18T15:08:46.663Z,32.52
2018-03-18T15:13:48.734Z,30.30
2018-03-18T15:18:50.111Z,30.45
2018-03-18T15:23:51.450Z,31.23
2018-03-18T15:28:52.821Z,30.46
2018-03-18T15:33:54.219Z,30.24
2018-03-18T15:38:55.580Z,30.71
2018-03-18T15:43:56.972Z,30.19
2018-03-18T15:48:58.404Z,30.32
2018-03-18T15:53:59.814Z,30.37
2018-03-18T15:59:01.220Z,30.51
2018-03-18T16:04:02.678Z,30.97
2018-03-18T16:09:04.074Z,31.34
2018-03-18T16:14:06.198Z,30.97
2018-03-18T16:19:07.598Z,30.99
2018-03-18T16:24:09.028Z,30.57
2018-03-18T16:29:29.744Z,30.51
2018-03-18T16:34:31.159Z,30.66
2018-03-18T16:39:32.572Z,30.00
2018-03-18T16:44:33.907Z,30.58
2018-03-18T16:49:35.259Z,30.90
2018-03-18T16:54:36.630Z,31.44
2018-03-18T16:59:38.007Z,31.05
2018-03-18T17:04:39.345Z,32.09
2018-03-18T17:09:41.428Z,32.28
2018-03-18T17:14:42.796Z,32.45
2018-03-18T17:19:44.157Z,32.24
2018-03-18T17:24:45.515Z,32.93
2018-03-18T17:29:47.623Z,33.25
2018-03-18T17:34:49.755Z,33.59
2018-03-18T17:39:51.152Z,34.00
2018-03-18T17:45:10.872Z,34.21
2018-03-18T17:50:19.240Z,33.53
2018-03-18T17:55:31.020Z,33.48
2018-03-18T18:00:32.408Z,33.19
2018-03-18T18:05:33.740Z,33.97
2018-03-18T18:10:35.151Z,33.20
2018-03-18T18:15:36.613Z,33.58
2018-03-18T18:20:37.999Z,34.12
2018-03-18T18:25:39.494Z,33.81
2018-03-18T18:30:40.971Z,33.99
2018-03-18T18:35:43.201Z,33.30
2018-03-18T18:40:44.716Z,33.18
2018-03-18T18:45:46.140Z,33.32
2018-03-18T18:50:47.646Z,33.99
2018-03-18T18:55:51.919Z,34.14
2018-03-18T19:00:53.367Z,34.44
2018-03-18T19:05:54.812Z,34.47
2018-03-18T19:10:56.920Z,34.01
2018-03-18T19:15:58.282Z,34.12
2018-03-18T19:20:59.648Z,34.45
2018-03-18T19:26:01.038Z,34.21
2018-03-18T19:31:03.299Z,34.74
2018-03-18T19:36:05.491Z,34.61
2018-03-18T19:41:07.585Z,34.18
2018-03-18T19:46:09.944Z,34.61
2018-03-18T19:51:11.364Z,34.34
2018-03-18T19:56:12.776Z,34.65
2018-03-18T20:01:14.195Z,34.64
2018-03-18T20:06:16.042Z,34.26
2018-03-18T20:11:17.417Z,34.40
2018-03-18T20:16:18.861Z,34.49
2018-03-18T20:21:20.251Z,34.70
2018-03-18T20:26:21.680Z,34.97
2018-03-18T20:31:23.123Z,35.21
2018-03-18T20:36:24.522Z,35.09
2018-03-18T20:41:25.887Z,35.04
2018-03-18T20:46:27.282Z,34.66
2018-03-18T20:51:28.930Z,34.81
2018-03-18T20:56:31.092Z,35.28
2018-03-18T21:01:32.441Z,35.31
2018-03-18T21:06:33.885Z,35.91
2018-03-18T21:11:35.312Z,36.04
2018-03-18T21:16:38.642Z,36.03
2018-03-18T21:21:40.068Z,35.68
2018-03-18T21:26:41.500Z,35.82
2018-03-18T21:31:42.869Z,36.22
2018-03-18T21:36:44.241Z,35.90
2018-03-18T21:41:45.647Z,35.74
2018-03-18T21:46:47.064Z,35.98
2018-03-18T21:51:48.450Z,36.40
2018-03-18T21:56:49.849Z,36.25
2018-03-18T22:01:51.946Z,36.49
2018-03-18T22:06:53.313Z,36.27
2018-03-18T22:11:54.688Z,36.77
2018-03-18T22:16:56.087Z,36.37
2018-03-18T22:21:57.464Z,36.57
2018-03-18T22:26:59.724Z,36.62
2018-03-18T22:32:01.122Z,36.99
2018-03-18T22:37:02.572Z,37.05
2018-03-18T22:42:03.950Z,36.96
2018-03-18T22:47:07.534Z,36.98
2018-03-18T22:52:09.077Z,37.03
2018-03-18T22:57:11.321Z,37.20
2018-03-18T23:02:12.713Z,37.13
2018-03-18T23:07:14.166Z,37.46
2018-03-18T23:12:16.063Z,37.21
2018-03-18T23:17:18.156Z,37.76
2018-03-18T23:22:20.390Z,37.86
2018-03-18T23:27:21.752Z,37.84
2018-03-18T23:32:23.140Z,37.79
2018-03-18T23:37:25.291Z,37.80
2018-03-18T23:42:26.670Z,37.87
2018-03-18T23:47:28.028Z,37.62
2018-03-18T23:52:29.376Z,38.02
2018-03-18T23:57:30.764Z,37.93
